Time;durP1;ratioP1;P1;durP2;ratioP2;P2;SDS_P1;SDS_P2;PMS_P1;PMS_P2;Temp;Humidity;BMP_temperature;BMP_pressure;BME280_temperature;BME280_humidity;BME280_pressure;Samples;Min_cycle;Max_cycle;Signal;HPM_P1;HPM_P2
2022/06/26 00:00:49;;;;;;;;;;;24.30;95.00;;;;;;5036215;28;20329;-47
2022/06/26 00:03:37;;;;;;;;;;;24.40;95.20;;;;;;5035900;28;20016;-50
2022/06/26 00:06:21;;;;;;;;;;;24.50;95.30;;;;;;5036430;28;20279;-50
2022/06/26 00:09:06;;;;;;;;;;;24.50;95.30;;;;;;5035722;28;19920;-48
2022/06/26 00:11:50;;;;;;;;;;;24.60;95.20;;;;;;5036585;28;19911;-50
2022/06/26 00:14:34;;;;;;;;;;;24.60;94.90;;;;;;5021373;28;20416;-48
2022/06/26 00:17:18;;;;;;;;;;;24.60;94.60;;;;;;5036190;28;19916;-47
2022/06/26 00:20:03;;;;;;;;;;;24.60;94.50;;;;;;5036126;28;19920;-47
2022/06/26 00:22:47;;;;;;;;;;;24.60;94.50;;;;;;5037052;28;20351;-47
2022/06/26 00:25:32;;;;;;;;;;;24.60;94.60;;;;;;5039925;28;19915;-50
2022/06/26 00:28:16;;;;;;;;;;;24.70;94.90;;;;;;5055843;28;19962;-48
2022/06/26 00:31:01;;;;;;;;;;;24.50;95.60;;;;;;5016814;28;19920;-50
2022/06/26 00:33:45;;;;;;;;;;;24.20;96.50;;;;;;5033212;28;19916;-51
2022/06/26 00:36:29;;;;;;;;;;;24.00;96.90;;;;;;5036204;28;19920;-50
2022/06/26 00:39:14;;;;;;;;;;;24.00;97.00;;;;;;5034973;28;19927;-48
2022/06/26 00:41:58;;;;;;;;;;;24.00;97.10;;;;;;5036168;28;19917;-51
2022/06/26 00:44:42;;;;;;;;;;;24.00;97.10;;;;;;5035594;28;20303;-50
2022/06/26 00:47:26;;;;;;;;;;;24.00;97.00;;;;;;5035427;28;19920;-47
2022/06/26 00:50:10;;;;;;;;;;;24.00;97.00;;;;;;5016098;28;19917;-48
2022/06/26 00:52:56;;;;;;;;;;;23.90;97.10;;;;;;5018626;28;19972;-51
2022/06/26 00:55:40;;;;;;;;;;;23.90;97.40;;;;;;5035414;28;19920;-53
2022/06/26 00:58:24;;;;;;;;;;;23.90;97.50;;;;;;5034751;28;19939;-50
2022/06/26 01:01:09;;;;;;;;;;;23.90;97.50;;;;;;5035378;28;20386;-53
2022/06/26 01:03:53;;;;;;;;;;;23.80;97.60;;;;;;5034845;28;20026;-49
2022/06/26 01:06:37;;;;;;;;;;;23.60;97.70;;;;;;5035179;28;20275;-51
2022/06/26 01:09:22;;;;;;;;;;;23.60;97.90;;;;;;5015224;28;19921;-51
2022/06/26 01:12:06;;;;;;;;;;;23.50;97.60;;;;;;5018242;28;20036;-51
2022/06/26 01:14:51;;;;;;;;;;;23.50;97.80;;;;;;5034644;28;19958;-51
2022/06/26 01:17:35;;;;;;;;;;;23.40;98.00;;;;;;5034374;28;19996;-51
2022/06/26 01:20:20;;;;;;;;;;;23.40;98.00;;;;;;5034857;28;19944;-51
2022/06/26 01:23:05;;;;;;;;;;;23.40;98.00;;;;;;5033086;28;19916;-52
2022/06/26 01:25:49;;;;;;;;;;;23.40;98.10;;;;;;5033333;28;19940;-54
2022/06/26 01:28:33;;;;;;;;;;;23.30;98.00;;;;;;5033333;28;19940;-49
2022/06/26 01:31:19;;;;;;;;;;;23.20;98.20;;;;;;5033847;28;20005;-47
2022/06/26 01:34:04;;;;;;;;;;;23.20;98.40;;;;;;5041561;28;20279;-53
2022/06/26 01:36:49;;;;;;;;;;;23.20;98.40;;;;;;5050357;28;19943;-50
2022/06/26 01:39:33;;;;;;;;;;;23.10;98.40;;;;;;5034658;28;19983;-51
2022/06/26 01:42:17;;;;;;;;;;;23.10;98.70;;;;;;5034533;28;19915;-53
2022/06/26 01:45:01;;;;;;;;;;;23.00;99.20;;;;;;5014582;28;19988;-52
2022/06/26 01:47:45;;;;;;;;;;;22.90;99.70;;;;;;5024962;28;19988;-50
2022/06/26 01:50:30;;;;;;;;;;;22.90;99.90;;;;;;5034024;28;19919;-49
2022/06/26 01:53:14;;;;;;;;;;;22.90;99.90;;;;;;5034722;28;20434;-50
2022/06/26 01:55:58;;;;;;;;;;;22.80;99.80;;;;;;5034624;28;19932;-51
2022/06/26 01:58:43;;;;;;;;;;;22.80;99.60;;;;;;5037140;28;19919;-52
2022/06/26 02:01:27;;;;;;;;;;;22.80;99.70;;;;;;5021649;28;19952;-51
2022/06/26 02:04:16;;;;;;;;;;;22.70;99.90;;;;;;5017171;28;20443;-49
2022/06/26 02:07:00;;;;;;;;;;;22.60;99.90;;;;;;5033793;28;19967;-49
2022/06/26 02:15:51;;;;;;;;;;;22.40;99.90;;;;;;5033132;28;19951;-54
2022/06/26 02:18:36;;;;;;;;;;;22.40;99.90;;;;;;5013650;28;20023;-55
2022/06/26 02:21:22;;;;;;;;;;;22.40;99.90;;;;;;5014985;28;20026;-50
2022/06/26 02:24:07;;;;;;;;;;;22.50;99.90;;;;;;5034895;28;19932;-54
2022/06/26 02:26:51;;;;;;;;;;;22.50;99.90;;;;;;5034696;28;19963;-51
2022/06/26 02:29:35;;;;;;;;;;;22.40;99.90;;;;;;5035136;28;19916;-55
2022/06/26 02:32:19;;;;;;;;;;;22.30;99.90;;;;;;5035361;28;19916;-51
2022/06/26 02:35:04;;;;;;;;;;;22.20;99.90;;;;;;5031905;28;20079;-55
2022/06/26 02:37:48;;;;;;;;;;;22.20;99.90;;;;;;5031792;28;20281;-47
2022/06/26 02:40:32;;;;;;;;;;;22.20;99.90;;;;;;5032892;28;19987;-50
2022/06/26 02:43:18;;;;;;;;;;;22.20;99.90;;;;;;5035786;28;19919;-50
2022/06/26 02:46:02;;;;;;;;;;;22.20;99.90;;;;;;5032828;28;19963;-52
2022/06/26 02:48:47;;;;;;;;;;;22.20;99.90;;;;;;5032953;28;19920;-50
2022/06/26 02:51:31;;;;;;;;;;;22.20;99.90;;;;;;5033826;28;19957;-52
2022/06/26 02:54:15;;;;;;;;;;;22.20;99.90;;;;;;5017992;28;19920;-50
2022/06/26 02:56:59;;;;;;;;;;;22.20;99.90;;;;;;5033379;28;19920;-52
2022/06/26 02:59:43;;;;;;;;;;;22.00;99.90;;;;;;5033503;28;19972;-52
2022/06/26 03:02:28;;;;;;;;;;;22.00;99.90;;;;;;5018439;28;19917;-50
2022/06/26 03:05:12;;;;;;;;;;;22.10;99.90;;;;;;5033218;28;19979;-51
2022/06/26 03:07:56;;;;;;;;;;;22.30;99.90;;;;;;5032374;28;19920;-51
2022/06/26 03:10:40;;;;;;;;;;;22.30;99.90;;;;;;5012615;28;19921;-53
2022/06/26 03:13:25;;;;;;;;;;;22.30;99.90;;;;;;5015204;28;20410;-52
2022/06/26 03:16:09;;;;;;;;;;;22.10;99.90;;;;;;5033000;28;19916;-53
2022/06/26 03:18:53;;;;;;;;;;;22.20;99.90;;;;;;5032143;28;19920;-53
2022/06/26 03:21:37;;;;;;;;;;;22.20;99.90;;;;;;5032434;28;20217;-51
2022/06/26 03:24:21;;;;;;;;;;;22.20;99.90;;;;;;5033250;28;19919;-49
2022/06/26 03:27:05;;;;;;;;;;;22.20;99.90;;;;;;5034712;28;19916;-49
2022/06/26 03:29:50;;;;;;;;;;;22.30;99.90;;;;;;5036732;28;19924;-47
2022/06/26 03:32:34;;;;;;;;;;;22.40;99.90;;;;;;5036592;28;19915;-52
2022/06/26 03:35:18;;;;;;;;;;;22.60;99.90;;;;;;5036474;28;20287;-49
2022/06/26 03:38:03;;;;;;;;;;;22.80;99.90;;;;;;5036952;28;19932;-47
2022/06/26 03:40:47;;;;;;;;;;;22.90;99.90;;;;;;5036603;28;20116;-54
2022/06/26 03:43:31;;;;;;;;;;;22.80;99.90;;;;;;5035502;28;20016;-54
2022/06/26 03:46:15;;;;;;;;;;;22.70;99.90;;;;;;5036172;28;19963;-54
2022/06/26 03:49:02;;;;;;;;;;;22.70;99.90;;;;;;5035465;28;19920;-52
2022/06/26 03:51:46;;;;;;;;;;;22.60;99.90;;;;;;5036325;28;19955;-50
2022/06/26 03:54:30;;;;;;;;;;;22.50;99.90;;;;;;5021042;28;19915;-52
2022/06/26 03:57:15;;;;;;;;;;;22.40;99.90;;;;;;5035356;28;20380;-50
2022/06/26 03:59:59;;;;;;;;;;;22.30;99.90;;;;;;5035435;28;19916;-49
2022/06/26 04:02:43;;;;;;;;;;;22.30;99.90;;;;;;5036331;28;19916;-50
2022/06/26 04:05:28;;;;;;;;;;;22.30;99.90;;;;;;5036139;28;19917;-50
2022/06/26 04:08:12;;;;;;;;;;;22.50;99.90;;;;;;5035793;28;19920;-51
2022/06/26 04:10:56;;;;;;;;;;;22.60;99.90;;;;;;5035122;28;19939;-51
2022/06/26 04:13:40;;;;;;;;;;;22.60;99.90;;;;;;5035306;28;19991;-50
2022/06/26 04:16:24;;;;;;;;;;;22.70;99.90;;;;;;5036621;28;20399;-51
2022/06/26 04:19:09;;;;;;;;;;;22.70;99.90;;;;;;5035617;28;19959;-52
2022/06/26 04:21:53;;;;;;;;;;;22.60;99.90;;;;;;5035619;28;19966;-52
2022/06/26 04:24:37;;;;;;;;;;;22.60;99.90;;;;;;5035460;28;19915;-53
2022/06/26 04:27:21;;;;;;;;;;;22.60;99.90;;;;;;5035133;28;20153;-52
2022/06/26 04:30:06;;;;;;;;;;;22.60;99.90;;;;;;5035149;28;19951;-54
2022/06/26 04:32:50;;;;;;;;;;;22.70;99.90;;;;;;5022359;28;19916;-51
2022/06/26 04:35:35;;;;;;;;;;;22.90;99.90;;;;;;5055185;28;19995;-50
2022/06/26 04:38:19;;;;;;;;;;;23.10;99.90;;;;;;5054759;28;19966;-50
2022/06/26 04:41:31;;;;;;;;;;;23.20;99.90;;;;;;5035923;28;19959;-53
2022/06/26 04:44:09;;;;;;;;;;;23.40;99.90;;;;;;5024858;28;19940;-51
2022/06/26 04:46:53;;;;;;;;;;;23.50;99.90;;;;;;5035506;28;19916;-54
2022/06/26 04:49:38;;;;;;;;;;;23.30;99.90;;;;;;5021902;28;19974;-51
2022/06/26 04:52:22;;;;;;;;;;;23.30;99.90;;;;;;5021422;28;19916;-52
2022/06/26 04:55:06;;;;;;;;;;;23.30;99.90;;;;;;5035845;28;19920;-53
2022/06/26 04:57:50;;;;;;;;;;;23.40;99.90;;;;;;5036209;28;19951;-53
2022/06/26 05:00:35;;;;;;;;;;;23.50;99.90;;;;;;5021715;28;19919;-49
2022/06/26 05:03:19;;;;;;;;;;;23.60;99.90;;;;;;5020913;28;19931;-50
2022/06/26 05:06:03;;;;;;;;;;;23.70;99.90;;;;;;5035652;28;19982;-49
2022/06/26 05:08:47;;;;;;;;;;;23.90;99.90;;;;;;5033961;28;19977;-51
2022/06/26 05:11:32;;;;;;;;;;;23.90;99.60;;;;;;5036638;28;19916;-53
2022/06/26 05:14:16;;;;;;;;;;;24.00;99.40;;;;;;5036864;28;19931;-48
2022/06/26 05:17:01;;;;;;;;;;;24.00;99.30;;;;;;5035425;28;19916;-51
2022/06/26 05:19:45;;;;;;;;;;;24.00;99.20;;;;;;5020367;28;19966;-52
2022/06/26 05:22:29;;;;;;;;;;;24.00;98.90;;;;;;5035041;28;19935;-56
2022/06/26 05:25:13;;;;;;;;;;;24.00;98.90;;;;;;5034663;28;20393;-51
2022/06/26 05:27:57;;;;;;;;;;;24.00;99.10;;;;;;5033986;28;20323;-55
2022/06/26 05:30:42;;;;;;;;;;;24.00;99.00;;;;;;5033377;28;20004;-56
2022/06/26 05:33:27;;;;;;;;;;;23.90;98.90;;;;;;5024710;28;20444;-53
2022/06/26 05:36:11;;;;;;;;;;;24.10;98.60;;;;;;5017798;28;20004;-53
2022/06/26 05:38:55;;;;;;;;;;;24.20;98.50;;;;;;5034125;28;19939;-51
2022/06/26 05:41:39;;;;;;;;;;;24.30;98.20;;;;;;5033633;28;19954;-53
2022/06/26 05:44:23;;;;;;;;;;;24.30;97.90;;;;;;5020584;28;19959;-54
2022/06/26 05:47:08;;;;;;;;;;;24.50;97.70;;;;;;5017915;28;19940;-51
2022/06/26 05:49:52;;;;;;;;;;;24.70;97.20;;;;;;5032436;28;20553;-52
2022/06/26 05:52:36;;;;;;;;;;;24.80;97.00;;;;;;5033215;28;20384;-55
2022/06/26 05:55:20;;;;;;;;;;;24.90;97.00;;;;;;5033906;28;19927;-51
2022/06/26 05:58:05;;;;;;;;;;;25.00;96.90;;;;;;5032827;28;20070;-50
2022/06/26 06:00:49;;;;;;;;;;;25.10;96.40;;;;;;5033491;28;20032;-50
2022/06/26 06:03:33;;;;;;;;;;;25.00;96.30;;;;;;5033376;28;19919;-51
2022/06/26 06:06:17;;;;;;;;;;;24.80;96.40;;;;;;5034197;28;19915;-48
2022/06/26 06:09:02;;;;;;;;;;;24.90;96.10;;;;;;5032716;28;19971;-50
2022/06/26 06:11:46;;;;;;;;;;;24.90;96.30;;;;;;5034098;28;19947;-53
2022/06/26 06:14:30;;;;;;;;;;;25.00;96.20;;;;;;5033314;28;19915;-49
2022/06/26 06:20:19;;;;;;;;;;;25.40;95.70;;;;;;5014029;28;19926;-51
2022/06/26 06:23:04;;;;;;;;;;;25.40;95.10;;;;;;5016998;28;19920;-53
2022/06/26 06:25:48;;;;;;;;;;;25.20;95.20;;;;;;5018488;28;19916;-54
2022/06/26 06:28:33;;;;;;;;;;;25.20;95.30;;;;;;5018007;28;19979;-50
2022/06/26 06:31:17;;;;;;;;;;;25.20;94.90;;;;;;5032838;28;20600;-52
2022/06/26 06:34:01;;;;;;;;;;;25.20;95.10;;;;;;5024906;28;20160;-53
2022/06/26 06:36:46;;;;;;;;;;;25.30;95.20;;;;;;5053234;28;19932;-49
2022/06/26 06:39:30;;;;;;;;;;;25.30;94.60;;;;;;5023975;28;19932;-51
2022/06/26 06:42:15;;;;;;;;;;;25.40;95.10;;;;;;5033375;28;19916;-53
2022/06/26 06:44:59;;;;;;;;;;;25.40;94.50;;;;;;5035514;28;19932;-52
2022/06/26 06:47:43;;;;;;;;;;;25.30;94.40;;;;;;5051541;28;20351;-52
2022/06/26 06:50:27;;;;;;;;;;;25.10;94.70;;;;;;5036202;28;20307;-46
2022/06/26 06:53:11;;;;;;;;;;;25.00;94.80;;;;;;5033304;28;20406;-49
2022/06/26 06:55:56;;;;;;;;;;;25.10;94.90;;;;;;5033646;28;19935;-53
2022/06/26 06:58:40;;;;;;;;;;;25.10;95.20;;;;;;5033006;28;20066;-54
2022/06/26 07:01:24;;;;;;;;;;;25.40;94.80;;;;;;5018729;28;20284;-52
2022/06/26 07:04:09;;;;;;;;;;;25.50;94.70;;;;;;5037657;28;19963;-55
2022/06/26 07:06:54;;;;;;;;;;;25.70;94.50;;;;;;5021463;28;19920;-52
2022/06/26 07:09:38;;;;;;;;;;;25.90;94.10;;;;;;5037912;28;19916;-50
2022/06/26 07:12:22;;;;;;;;;;;25.90;93.00;;;;;;5042892;28;19915;-50
2022/06/26 07:15:07;;;;;;;;;;;25.90;93.20;;;;;;5055242;28;20386;-50
2022/06/26 07:17:51;;;;;;;;;;;26.00;93.00;;;;;;5041674;28;20447;-53
2022/06/26 07:20:35;;;;;;;;;;;26.20;92.40;;;;;;5056453;28;19919;-53
2022/06/26 07:23:20;;;;;;;;;;;26.20;92.50;;;;;;5027789;28;19959;-52
2022/06/26 07:26:04;;;;;;;;;;;26.30;92.30;;;;;;5036651;28;19959;-53
2022/06/26 07:28:48;;;;;;;;;;;26.40;92.30;;;;;;5037008;28;20476;-52
2022/06/26 07:31:33;;;;;;;;;;;26.60;92.10;;;;;;5036711;28;19916;-58
2022/06/26 07:34:17;;;;;;;;;;;26.70;92.00;;;;;;5037472;28;19973;-67
2022/06/26 07:37:04;;;;;;;;;;;26.90;91.90;;;;;;5006769;28;19916;-56
2022/06/26 07:39:48;;;;;;;;;;;27.10;91.60;;;;;;5021780;28;20319;-57
2022/06/26 07:42:33;;;;;;;;;;;27.20;91.30;;;;;;5035954;28;20001;-55
2022/06/26 07:45:17;;;;;;;;;;;27.30;90.90;;;;;;5025692;28;19962;-52
2022/06/26 07:48:02;;;;;;;;;;;27.40;90.70;;;;;;5021350;28;19967;-52
2022/06/26 07:50:46;;;;;;;;;;;27.60;90.70;;;;;;5035979;28;20292;-57
2022/06/26 07:53:31;;;;;;;;;;;27.60;90.40;;;;;;5008564;28;19916;-56
2022/06/26 07:56:15;;;;;;;;;;;27.70;90.20;;;;;;5022573;28;20292;-58
2022/06/26 07:58:59;;;;;;;;;;;27.80;90.10;;;;;;5022967;28;19952;-54
2022/06/26 08:01:44;;;;;;;;;;;27.80;88.70;;;;;;5038777;28;19924;-51
2022/06/26 08:04:29;;;;;;;;;;;27.70;88.10;;;;;;5037501;28;20437;-53
2022/06/26 08:07:13;;;;;;;;;;;27.90;88.40;;;;;;5022581;28;19924;-59
2022/06/26 08:09:57;;;;;;;;;;;27.90;88.20;;;;;;5036674;28;19916;-54
2022/06/26 08:12:41;;;;;;;;;;;27.80;87.80;;;;;;5036312;28;19916;-53
2022/06/26 08:15:26;;;;;;;;;;;27.80;88.20;;;;;;5036122;28;19920;-53
2022/06/26 08:18:11;;;;;;;;;;;27.90;87.80;;;;;;5036012;28;19975;-54
2022/06/26 08:20:55;;;;;;;;;;;27.90;88.60;;;;;;5035883;28;20379;-52
2022/06/26 08:23:39;;;;;;;;;;;28.10;87.50;;;;;;5035463;28;19916;-50
2022/06/26 08:26:24;;;;;;;;;;;28.30;87.00;;;;;;5035613;28;19929;-52
2022/06/26 08:29:08;;;;;;;;;;;28.40;85.40;;;;;;5036049;28;19959;-55
2022/06/26 08:31:52;;;;;;;;;;;28.40;84.30;;;;;;5020184;28;19963;-55
2022/06/26 08:34:36;;;;;;;;;;;28.50;81.90;;;;;;5052204;28;20267;-52
2022/06/26 08:37:20;;;;;;;;;;;28.60;81.70;;;;;;5045896;28;19920;-52
2022/06/26 08:40:05;;;;;;;;;;;28.50;81.80;;;;;;5035923;28;19924;-54
2022/06/26 08:42:52;;;;;;;;;;;28.60;79.40;;;;;;5038687;28;19912;-55
2022/06/26 08:45:39;;;;;;;;;;;28.50;78.60;;;;;;5038171;28;19920;-54
2022/06/26 08:48:27;;;;;;;;;;;28.50;78.70;;;;;;5044173;28;20003;-54
2022/06/26 08:51:11;;;;;;;;;;;28.60;78.70;;;;;;5048455;28;19920;-54
2022/06/26 08:53:56;;;;;;;;;;;28.30;79.80;;;;;;5047505;28;19912;-50
2022/06/26 08:56:42;;;;;;;;;;;28.40;79.80;;;;;;5055387;28;20229;-54
2022/06/26 08:59:27;;;;;;;;;;;28.40;79.90;;;;;;5038306;28;19916;-54
2022/06/26 09:02:12;;;;;;;;;;;28.60;79.30;;;;;;5034796;28;19975;-55
2022/06/26 09:04:57;;;;;;;;;;;28.60;79.40;;;;;;5034738;28;19978;-53
2022/06/26 09:07:48;;;;;;;;;;;28.60;79.00;;;;;;5014845;28;19972;-52
2022/06/26 09:10:37;;;;;;;;;;;28.70;77.60;;;;;;5020247;28;19927;-55
2022/06/26 09:13:21;;;;;;;;;;;28.40;77.30;;;;;;5000424;28;20284;-54
2022/06/26 09:16:06;;;;;;;;;;;28.90;76.80;;;;;;5024762;28;19971;-54
2022/06/26 09:18:50;;;;;;;;;;;29.10;76.50;;;;;;5034300;28;19963;-52
2022/06/26 09:21:34;;;;;;;;;;;29.40;75.10;;;;;;5034212;28;20303;-54
2022/06/26 09:24:19;;;;;;;;;;;29.40;75.90;;;;;;5034690;28;19916;-55
2022/06/26 09:27:10;;;;;;;;;;;29.10;75.20;;;;;;5034237;28;19920;-54
2022/06/26 09:29:55;;;;;;;;;;;29.30;75.40;;;;;;5034460;28;19920;-56
2022/06/26 09:32:40;;;;;;;;;;;29.20;74.60;;;;;;5036436;28;19967;-53
2022/06/26 09:35:26;;;;;;;;;;;29.10;75.50;;;;;;5025164;28;19919;-54
2022/06/26 09:38:10;;;;;;;;;;;29.30;75.10;;;;;;5033833;28;19920;-52
2022/06/26 09:40:58;;;;;;;;;;;29.30;74.00;;;;;;5033995;28;19920;-56
2022/06/26 09:43:43;;;;;;;;;;;29.10;74.70;;;;;;5033281;28;20387;-54
2022/06/26 09:46:31;;;;;;;;;;;28.70;73.90;;;;;;5033072;28;19951;-54
2022/06/26 09:49:16;;;;;;;;;;;28.60;73.70;;;;;;5033533;28;19919;-51
2022/06/26 09:52:00;;;;;;;;;;;28.60;73.50;;;;;;5033182;28;19979;-52
2022/06/26 09:54:45;;;;;;;;;;;28.90;73.60;;;;;;5017845;28;19920;-52
2022/06/26 09:57:29;;;;;;;;;;;29.10;73.40;;;;;;5033381;28;20002;-49
2022/06/26 10:00:13;;;;;;;;;;;29.30;72.70;;;;;;5014494;28;20385;-53
2022/06/26 10:09:06;;;;;;;;;;;29.70;68.70;;;;;;5033871;28;19923;-50
2022/06/26 10:11:50;;;;;;;;;;;30.00;69.70;;;;;;5034682;28;19912;-52
2022/06/26 10:14:36;;;;;;;;;;;30.10;69.70;;;;;;5033764;28;19920;-53
2022/06/26 10:17:29;;;;;;;;;;;30.20;69.50;;;;;;5013933;28;20583;-56
2022/06/26 10:20:18;;;;;;;;;;;30.50;68.70;;;;;;4998834;28;19988;-54
2022/06/26 10:23:02;;;;;;;;;;;30.70;67.80;;;;;;5016105;28;19943;-55
2022/06/26 10:25:46;;;;;;;;;;;30.40;66.70;;;;;;5033799;28;19920;-52
2022/06/26 10:28:31;;;;;;;;;;;30.40;68.70;;;;;;5013533;28;20005;-55
2022/06/26 10:31:15;;;;;;;;;;;30.50;68.70;;;;;;5020558;28;19935;-54
2022/06/26 10:34:09;;;;;;;;;;;30.30;69.40;;;;;;5033643;28;20028;-55
2022/06/26 10:37:03;;;;;;;;;;;30.10;69.10;;;;;;5032943;28;19931;-54
2022/06/26 10:39:49;;;;;;;;;;;29.90;69.60;;;;;;5017880;28;19959;-52
2022/06/26 10:45:37;;;;;;;;;;;29.80;68.80;;;;;;5031129;28;19967;-58
2022/06/26 10:48:23;;;;;;;;;;;30.10;68.70;;;;;;5032821;28;20002;-56
2022/06/26 10:51:07;;;;;;;;;;;30.20;68.20;;;;;;5033969;28;19917;-57
2022/06/26 10:53:51;;;;;;;;;;;30.20;67.40;;;;;;5033395;28;19967;-58
2022/06/26 10:56:36;;;;;;;;;;;29.90;66.90;;;;;;5032888;28;19955;-57
2022/06/26 10:59:20;;;;;;;;;;;29.90;67.30;;;;;;5030325;28;19967;-55
2022/06/26 11:02:05;;;;;;;;;;;30.20;66.90;;;;;;5032952;28;20347;-56
2022/06/26 11:04:50;;;;;;;;;;;30.40;65.90;;;;;;5025836;28;19963;-58
2022/06/26 11:07:44;;;;;;;;;;;30.40;65.60;;;;;;5031491;28;19931;-56
2022/06/26 11:10:29;;;;;;;;;;;30.40;65.70;;;;;;5027297;28;19935;-56
2022/06/26 11:13:13;;;;;;;;;;;30.20;65.30;;;;;;5033176;28;20291;-52
2022/06/26 11:15:57;;;;;;;;;;;30.10;65.10;;;;;;5031262;28;19959;-59
2022/06/26 11:18:41;;;;;;;;;;;30.20;64.30;;;;;;5033398;28;19912;-57
2022/06/26 11:21:27;;;;;;;;;;;30.40;64.80;;;;;;5033521;28;19920;-58
2022/06/26 11:24:11;;;;;;;;;;;30.40;65.20;;;;;;5033752;28;19916;-58
2022/06/26 11:26:55;;;;;;;;;;;30.40;64.20;;;;;;5033672;28;19952;-55
2022/06/26 11:29:39;;;;;;;;;;;30.40;63.80;;;;;;5033691;28;19959;-57
2022/06/26 11:32:24;;;;;;;;;;;30.50;63.00;;;;;;5012721;28;19960;-58
2022/06/26 11:35:08;;;;;;;;;;;30.50;62.80;;;;;;5032863;28;19919;-55
2022/06/26 11:37:53;;;;;;;;;;;30.50;63.30;;;;;;5026906;28;19924;-56
2022/06/26 11:40:37;;;;;;;;;;;30.50;63.70;;;;;;5033749;28;19920;-60
2022/06/26 11:43:21;;;;;;;;;;;30.80;63.20;;;;;;5032940;28;19955;-57
2022/06/26 11:46:05;;;;;;;;;;;30.90;61.90;;;;;;5014846;28;20388;-58
2022/06/26 11:48:53;;;;;;;;;;;30.90;62.10;;;;;;5016474;28;19920;-60
2022/06/26 11:51:37;;;;;;;;;;;30.90;62.10;;;;;;5016791;28;19928;-58
2022/06/26 11:54:25;;;;;;;;;;;30.70;61.30;;;;;;5017148;28;19920;-59
2022/06/26 11:57:11;;;;;;;;;;;30.50;61.70;;;;;;5034571;28;19920;-57
2022/06/26 12:00:03;;;;;;;;;;;30.20;61.30;;;;;;5021337;28;19983;-58
2022/06/26 12:02:48;;;;;;;;;;;30.40;61.50;;;;;;5050359;28;19958;-58
2022/06/26 12:05:32;;;;;;;;;;;30.60;61.30;;;;;;5039644;28;19959;-56
2022/06/26 12:08:17;;;;;;;;;;;30.40;61.20;;;;;;5035968;28;19971;-56
2022/06/26 12:11:03;;;;;;;;;;;30.20;61.50;;;;;;5020899;28;19921;-59
2022/06/26 12:13:47;;;;;;;;;;;30.10;62.10;;;;;;5035719;28;20039;-55
2022/06/26 12:16:31;;;;;;;;;;;30.20;61.50;;;;;;5035932;28;19970;-58
2022/06/26 12:19:16;;;;;;;;;;;30.60;61.00;;;;;;5055485;28;19936;-53
2022/06/26 12:22:00;;;;;;;;;;;30.80;61.00;;;;;;5055264;28;19911;-52
2022/06/26 12:24:49;;;;;;;;;;;31.00;60.20;;;;;;5055387;28;19916;-53
2022/06/26 12:27:43;;;;;;;;;;;31.00;59.40;;;;;;5049925;28;20019;-55
2022/06/26 12:30:39;;;;;;;;;;;31.00;58.80;;;;;;5021090;28;19916;-58
2022/06/26 12:33:23;;;;;;;;;;;31.50;58.00;;;;;;5043954;28;20290;-56
2022/06/26 12:36:07;;;;;;;;;;;31.70;57.60;;;;;;5041122;28;20445;-57
2022/06/26 12:38:51;;;;;;;;;;;31.60;56.90;;;;;;5040774;28;19923;-58
2022/06/26 12:41:36;;;;;;;;;;;31.70;57.00;;;;;;5041637;28;19912;-58
2022/06/26 12:44:20;;;;;;;;;;;31.90;58.10;;;;;;5022011;28;20478;-59
2022/06/26 12:47:07;;;;;;;;;;;32.20;57.20;;;;;;5021856;28;19916;-58
2022/06/26 12:50:00;;;;;;;;;;;32.30;57.40;;;;;;5009577;28;19916;-56
2022/06/26 12:52:44;;;;;;;;;;;32.50;57.60;;;;;;5023210;28;19912;-53
2022/06/26 12:55:29;;;;;;;;;;;32.60;56.10;;;;;;5035896;28;19912;-55
2022/06/26 12:58:13;;;;;;;;;;;32.60;56.10;;;;;;5035462;28;19998;-58
2022/06/26 13:00:57;;;;;;;;;;;32.60;56.20;;;;;;5019679;28;19924;-59
2022/06/26 13:03:44;;;;;;;;;;;32.70;56.50;;;;;;5005481;28;19988;-60
2022/06/26 13:06:28;;;;;;;;;;;33.00;56.60;;;;;;5007587;28;20395;-57
2022/06/26 13:09:13;;;;;;;;;;;33.10;56.50;;;;;;5040067;28;19916;-58
2022/06/26 13:12:00;;;;;;;;;;;33.30;55.80;;;;;;5040265;28;20115;-57
2022/06/26 13:14:44;;;;;;;;;;;33.30;55.50;;;;;;5053945;28;19958;-55
2022/06/26 13:17:29;;;;;;;;;;;33.50;55.40;;;;;;5039946;28;19952;-59
2022/06/26 13:20:13;;;;;;;;;;;33.20;53.30;;;;;;5044636;28;19915;-56
2022/06/26 13:22:57;;;;;;;;;;;33.00;53.10;;;;;;5019913;28;19916;-61
2022/06/26 13:25:42;;;;;;;;;;;33.00;53.70;;;;;;5035977;28;19912;-60
2022/06/26 13:28:26;;;;;;;;;;;33.20;53.50;;;;;;5034445;28;20395;-51
2022/06/26 13:31:10;;;;;;;;;;;33.40;52.70;;;;;;5034286;28;19980;-56
2022/06/26 13:33:54;;;;;;;;;;;33.50;52.90;;;;;;5032951;28;19967;-54
2022/06/26 13:36:39;;;;;;;;;;;33.40;52.10;;;;;;5033812;28;19967;-56
2022/06/26 13:39:23;;;;;;;;;;;33.40;52.40;;;;;;5034527;28;20012;-56
2022/06/26 13:42:07;;;;;;;;;;;33.10;52.80;;;;;;5034794;28;19919;-56
2022/06/26 13:44:52;;;;;;;;;;;33.40;52.30;;;;;;5018917;28;19916;-56
2022/06/26 13:47:37;;;;;;;;;;;33.60;52.30;;;;;;5033980;28;19924;-55
2022/06/26 13:50:21;;;;;;;;;;;33.80;52.90;;;;;;5034858;28;19999;-59
2022/06/26 13:53:05;;;;;;;;;;;33.90;51.70;;;;;;5035606;28;20450;-55
2022/06/26 13:55:50;;;;;;;;;;;33.80;51.80;;;;;;5034255;28;19958;-56
2022/06/26 13:58:34;;;;;;;;;;;33.90;52.10;;;;;;5036657;28;19955;-56
2022/06/26 14:01:19;;;;;;;;;;;34.30;52.30;;;;;;5017588;28;19971;-57
2022/06/26 14:04:03;;;;;;;;;;;34.50;51.70;;;;;;5019373;28;20012;-53
2022/06/26 14:06:47;;;;;;;;;;;34.40;50.90;;;;;;5034630;28;19916;-54
2022/06/26 14:09:31;;;;;;;;;;;34.00;50.80;;;;;;5034170;28;19924;-54
2022/06/26 14:12:16;;;;;;;;;;;33.70;51.20;;;;;;5034098;28;19920;-58
2022/06/26 14:15:00;;;;;;;;;;;33.50;51.00;;;;;;5033894;28;20011;-58
2022/06/26 14:17:44;;;;;;;;;;;33.70;51.00;;;;;;5033981;28;19924;-57
2022/06/26 14:20:28;;;;;;;;;;;33.80;51.00;;;;;;5033826;28;20010;-54
2022/06/26 14:26:18;;;;;;;;;;;33.70;51.50;;;;;;5034092;28;19920;-53
2022/06/26 14:29:02;;;;;;;;;;;33.50;51.30;;;;;;5033826;28;20536;-57
2022/06/26 14:31:46;;;;;;;;;;;33.60;50.80;;;;;;5033929;28;19979;-57
2022/06/26 14:34:30;;;;;;;;;;;34.00;50.90;;;;;;5019671;28;20038;-57
2022/06/26 14:37:15;;;;;;;;;;;34.40;50.50;;;;;;5033070;28;19920;-55
2022/06/26 14:39:59;;;;;;;;;;;34.50;50.80;;;;;;5033133;28;19924;-56
2022/06/26 14:42:43;;;;;;;;;;;34.80;51.00;;;;;;5030586;28;19920;-57
2022/06/26 14:45:28;;;;;;;;;;;35.00;50.60;;;;;;5028313;28;19920;-55
2022/06/26 14:48:12;;;;;;;;;;;35.20;50.50;;;;;;5032232;28;19960;-54
2022/06/26 14:50:57;;;;;;;;;;;35.50;50.10;;;;;;5032477;28;19920;-56
2022/06/26 14:53:41;;;;;;;;;;;35.10;49.30;;;;;;5033287;28;19936;-57
2022/06/26 14:56:25;;;;;;;;;;;34.60;49.20;;;;;;5034204;28;19959;-57
2022/06/26 14:59:09;;;;;;;;;;;34.00;50.10;;;;;;5030917;28;20375;-54
2022/06/26 15:01:54;;;;;;;;;;;33.80;50.30;;;;;;5033399;28;19916;-56
2022/06/26 15:04:38;;;;;;;;;;;33.40;51.20;;;;;;5015337;28;19993;-58
2022/06/26 15:07:22;;;;;;;;;;;33.30;51.30;;;;;;5013155;28;19920;-55
2022/06/26 15:10:07;;;;;;;;;;;33.10;51.80;;;;;;5032992;28;19949;-55
2022/06/26 15:12:51;;;;;;;;;;;32.70;52.40;;;;;;5031382;28;20435;-56
2022/06/26 15:15:35;;;;;;;;;;;32.70;53.00;;;;;;5032940;28;19960;-58
2022/06/26 15:18:20;;;;;;;;;;;32.50;53.50;;;;;;5033078;28;19940;-58
2022/06/26 15:21:06;;;;;;;;;;;32.30;54.40;;;;;;5033502;28;19916;-56
2022/06/26 15:23:50;;;;;;;;;;;32.10;55.00;;;;;;5020645;28;20276;-56
2022/06/26 15:26:34;;;;;;;;;;;31.90;55.30;;;;;;5035321;28;20324;-56
2022/06/26 15:29:18;;;;;;;;;;;32.20;54.90;;;;;;5035747;28;19924;-56
2022/06/26 15:32:03;;;;;;;;;;;32.30;54.70;;;;;;5020496;28;20110;-58
2022/06/26 15:34:47;;;;;;;;;;;32.30;54.90;;;;;;5036146;28;19958;-56
2022/06/26 15:37:31;;;;;;;;;;;32.50;54.70;;;;;;5035931;28;19932;-55
2022/06/26 15:40:15;;;;;;;;;;;32.60;55.30;;;;;;5035925;28;19960;-56
2022/06/26 15:43:00;;;;;;;;;;;32.50;55.00;;;;;;5035867;28;19920;-55
2022/06/26 15:45:44;;;;;;;;;;;32.40;54.80;;;;;;5036174;28;19925;-56
2022/06/26 15:48:29;;;;;;;;;;;32.50;55.00;;;;;;5036331;28;19919;-56
2022/06/26 15:51:15;;;;;;;;;;;33.10;54.30;;;;;;5036098;28;20395;-54
2022/06/26 15:53:59;;;;;;;;;;;33.80;54.10;;;;;;5035896;28;19928;-51
2022/06/26 15:56:43;;;;;;;;;;;34.50;53.50;;;;;;5036852;28;20467;-55
2022/06/26 15:59:27;;;;;;;;;;;35.10;51.90;;;;;;5036602;28;19920;-57
2022/06/26 16:02:12;;;;;;;;;;;35.30;52.00;;;;;;5036332;28;20371;-54
2022/06/26 16:04:57;;;;;;;;;;;35.80;51.30;;;;;;5036140;28;20280;-55
2022/06/26 16:07:41;;;;;;;;;;;36.40;50.90;;;;;;5021829;28;19923;-55
2022/06/26 16:10:25;;;;;;;;;;;36.80;51.20;;;;;;5036223;28;20231;-53
2022/06/26 16:13:10;;;;;;;;;;;37.00;49.80;;;;;;5035811;28;20331;-56
2022/06/26 16:15:54;;;;;;;;;;;37.30;49.70;;;;;;5036568;28;19912;-52
2022/06/26 16:18:38;;;;;;;;;;;37.00;49.30;;;;;;5035923;28;19920;-54